createdAt,value
2023-07-21T00:00:40.941Z,15.90
2023-07-21T00:03:09.786Z,15.90
2023-07-21T00:05:36.884Z,15.90
2023-07-21T00:08:05.262Z,15.90
2023-07-21T00:10:34.914Z,15.90
2023-07-21T00:13:01.981Z,15.90
2023-07-21T00:15:29.056Z,15.80
2023-07-21T00:17:57.440Z,15.90
2023-07-21T00:20:27.019Z,15.80
2023-07-21T00:22:54.242Z,15.80
2023-07-21T00:25:21.463Z,15.80
2023-07-21T00:27:48.689Z,15.90
2023-07-21T00:30:18.073Z,15.80
2023-07-21T00:32:45.453Z,15.70
2023-07-21T00:35:19.120Z,15.70
2023-07-21T00:37:49.201Z,15.80
2023-07-21T00:40:24.690Z,15.80
2023-07-21T00:42:51.993Z,15.70
2023-07-21T00:45:19.210Z,15.80
2023-07-21T00:47:46.666Z,15.70
2023-07-21T00:50:23.064Z,15.70
2023-07-21T00:52:54.810Z,15.80
2023-07-21T00:55:24.988Z,15.80
2023-07-21T00:57:58.100Z,15.70
2023-07-21T01:00:25.857Z,15.70
2023-07-21T01:02:52.967Z,15.70
2023-07-21T01:05:19.998Z,15.70
2023-07-21T01:07:49.768Z,15.70
2023-07-21T01:10:16.896Z,15.80
2023-07-21T01:12:43.956Z,15.70
2023-07-21T01:15:11.276Z,15.70
2023-07-21T01:17:40.328Z,15.60
2023-07-21T01:20:10.589Z,15.70
2023-07-21T01:22:54.228Z,15.60
2023-07-21T01:25:25.943Z,15.60
2023-07-21T01:27:58.624Z,15.60
2023-07-21T01:30:35.459Z,15.60
2023-07-21T01:33:06.757Z,15.60
2023-07-21T01:35:36.196Z,15.60
2023-07-21T01:38:08.999Z,15.50
2023-07-21T01:40:37.870Z,15.60
2023-07-21T01:43:05.162Z,15.50
2023-07-21T01:45:32.350Z,15.50
2023-07-21T01:47:59.586Z,15.40
2023-07-21T01:50:28.350Z,15.40
2023-07-21T01:52:56.224Z,15.30
2023-07-21T01:55:36.788Z,15.30
2023-07-21T01:58:07.929Z,15.30
2023-07-21T02:00:50.790Z,15.30
2023-07-21T02:03:20.075Z,15.30
2023-07-21T02:05:49.264Z,15.30
2023-07-21T02:08:16.387Z,15.20
2023-07-21T02:10:45.078Z,15.20
2023-07-21T02:13:13.089Z,15.10
2023-07-21T02:15:40.447Z,15.10
2023-07-21T02:18:07.931Z,15.00
2023-07-21T02:20:34.976Z,15.00
2023-07-21T02:23:01.971Z,15.00
2023-07-21T02:25:29.111Z,15.00
2023-07-21T02:27:56.159Z,15.00
2023-07-21T02:30:24.489Z,14.90
2023-07-21T02:32:51.707Z,14.90
2023-07-21T02:35:18.794Z,14.80
2023-07-21T02:37:51.849Z,14.80
2023-07-21T02:40:22.288Z,14.60
2023-07-21T02:42:50.931Z,14.60
2023-07-21T02:45:18.180Z,14.60
2023-07-21T02:47:45.487Z,14.70
2023-07-21T02:50:12.613Z,14.70
2023-07-21T02:52:41.935Z,14.60
2023-07-21T02:55:09.405Z,14.60
2023-07-21T02:57:42.012Z,14.50
2023-07-21T03:00:13.001Z,14.60
2023-07-21T03:02:42.809Z,14.50
2023-07-21T03:05:10.662Z,14.60
2023-07-21T03:07:40.684Z,14.50
2023-07-21T03:10:12.632Z,14.50
2023-07-21T03:12:40.980Z,14.50
2023-07-21T03:15:09.506Z,14.50
2023-07-21T03:17:36.858Z,14.50
2023-07-21T03:20:12.911Z,14.50
2023-07-21T03:22:44.217Z,14.40
2023-07-21T03:25:12.366Z,14.40
2023-07-21T03:27:43.681Z,14.40
2023-07-21T03:30:11.302Z,14.40
2023-07-21T03:32:38.764Z,14.40
2023-07-21T03:35:09.321Z,14.50
2023-07-21T03:37:36.314Z,14.40
2023-07-21T03:40:07.613Z,14.40
2023-07-21T03:42:39.825Z,14.40
2023-07-21T03:45:08.200Z,14.40
2023-07-21T03:47:36.981Z,14.40
2023-07-21T03:50:04.818Z,14.40
2023-07-21T03:52:32.236Z,14.40
2023-07-21T03:54:59.252Z,14.40
2023-07-21T03:57:27.289Z,14.50
2023-07-21T03:59:54.596Z,14.40
2023-07-21T04:02:21.691Z,14.40
2023-07-21T04:04:50.042Z,14.40
2023-07-21T04:07:17.311Z,14.50
2023-07-21T04:09:46.615Z,14.50
2023-07-21T04:12:13.630Z,14.60
2023-07-21T04:14:40.646Z,14.60
2023-07-21T04:17:07.697Z,14.60
2023-07-21T04:19:34.694Z,14.70
2023-07-21T04:22:01.809Z,14.70
2023-07-21T04:24:29.012Z,14.70
2023-07-21T04:26:56.112Z,14.70
2023-07-21T04:29:36.099Z,14.80
2023-07-21T04:32:04.858Z,14.80
2023-07-21T04:34:32.246Z,14.80
2023-07-21T04:36:59.384Z,14.80
2023-07-21T04:39:32.209Z,14.80
2023-07-21T04:41:59.453Z,14.90
2023-07-21T04:44:28.110Z,15.00
2023-07-21T04:46:55.325Z,15.00
2023-07-21T04:49:22.506Z,15.00
2023-07-21T04:51:49.447Z,15.10
2023-07-21T04:54:18.104Z,15.00
2023-07-21T04:56:48.075Z,15.10
2023-07-21T04:59:15.099Z,15.20
2023-07-21T05:01:44.909Z,15.30
2023-07-21T05:04:12.497Z,15.30
2023-07-21T05:06:41.149Z,15.40
2023-07-21T05:09:10.313Z,15.30
2023-07-21T05:11:37.549Z,15.40
2023-07-21T05:14:07.603Z,15.60
2023-07-21T05:16:38.386Z,15.50
2023-07-21T05:19:08.003Z,15.50
2023-07-21T05:21:35.064Z,15.70
2023-07-21T05:24:02.376Z,15.70
2023-07-21T05:26:29.589Z,15.80
2023-07-21T05:28:56.673Z,15.90
2023-07-21T05:31:24.265Z,16.00
2023-07-21T05:33:54.479Z,16.10
2023-07-21T05:36:21.540Z,16.10
2023-07-21T05:38:48.584Z,16.20
2023-07-21T05:41:19.782Z,16.20
2023-07-21T05:43:46.938Z,16.00
2023-07-21T05:46:14.208Z,16.10
2023-07-21T05:48:43.153Z,16.00
2023-07-21T05:51:14.268Z,16.00
2023-07-21T05:53:41.584Z,16.00
2023-07-21T05:56:09.025Z,16.10
2023-07-21T05:58:36.605Z,16.20
2023-07-21T06:01:03.984Z,16.10
2023-07-21T06:03:32.421Z,16.20
2023-07-21T06:05:59.630Z,16.30
2023-07-21T06:08:26.805Z,16.50
2023-07-21T06:11:00.780Z,16.60
2023-07-21T06:13:31.178Z,16.60
2023-07-21T06:16:00.963Z,16.40
2023-07-21T06:18:31.472Z,16.40
2023-07-21T06:21:08.671Z,16.50
2023-07-21T06:23:35.923Z,16.50
2023-07-21T06:26:03.539Z,16.60
2023-07-21T06:28:30.785Z,16.70
2023-07-21T06:30:58.001Z,16.90
2023-07-21T06:33:25.432Z,16.90
2023-07-21T06:35:53.931Z,17.00
2023-07-21T06:38:21.056Z,17.00
2023-07-21T06:40:55.631Z,17.00
2023-07-21T06:43:25.707Z,17.20
2023-07-21T06:45:52.849Z,17.20
2023-07-21T06:48:19.970Z,17.30
2023-07-21T06:50:50.832Z,17.50
2023-07-21T06:53:21.404Z,17.60
2023-07-21T06:55:51.300Z,17.70
2023-07-21T06:58:18.965Z,17.90
2023-07-21T07:00:46.814Z,18.00
2023-07-21T07:03:14.080Z,18.60
2023-07-21T07:05:48.865Z,18.90
2023-07-21T07:08:17.465Z,19.40
2023-07-21T07:10:51.913Z,19.80
2023-07-21T07:13:19.656Z,19.40
2023-07-21T07:15:57.211Z,19.20
2023-07-21T07:18:25.862Z,19.30
2023-07-21T07:20:54.399Z,19.90
2023-07-21T07:23:22.254Z,20.20
2023-07-21T07:25:53.290Z,20.50
2023-07-21T07:28:22.257Z,20.40
2023-07-21T07:30:49.972Z,20.30
2023-07-21T07:33:20.595Z,20.70
2023-07-21T07:35:55.071Z,19.80
2023-07-21T07:38:30.808Z,20.00
2023-07-21T07:41:10.726Z,19.40
2023-07-21T07:43:38.405Z,20.40
2023-07-21T07:46:08.939Z,21.30
2023-07-21T07:48:38.824Z,21.70
2023-07-21T07:51:09.108Z,22.20
2023-07-21T07:53:37.427Z,22.40
2023-07-21T07:56:05.294Z,22.20
2023-07-21T07:58:32.955Z,22.50
2023-07-21T08:01:03.378Z,23.20
2023-07-21T08:03:31.520Z,22.20
2023-07-21T08:06:00.563Z,22.20
2023-07-21T08:08:30.752Z,22.60
2023-07-21T08:10:57.879Z,23.00
2023-07-21T08:13:25.074Z,23.00
2023-07-21T08:15:52.552Z,23.30
2023-07-21T08:18:19.649Z,23.20
2023-07-21T08:20:47.193Z,23.80
2023-07-21T08:23:28.018Z,22.80
2023-07-21T08:25:58.814Z,22.60
2023-07-21T08:28:25.768Z,23.30
2023-07-21T08:30:58.719Z,23.50
2023-07-21T08:33:26.975Z,23.10
2023-07-21T08:35:54.106Z,23.40
2023-07-21T08:38:21.296Z,23.30
2023-07-21T08:40:57.435Z,22.80
2023-07-21T08:43:24.803Z,22.90
2023-07-21T08:45:58.400Z,23.40
2023-07-21T08:48:29.125Z,23.20
2023-07-21T08:50:59.704Z,24.00
2023-07-21T08:53:27.802Z,23.90
2023-07-21T08:55:56.295Z,24.70
2023-07-21T08:58:27.129Z,24.20
2023-07-21T09:00:56.156Z,24.60
2023-07-21T09:03:31.666Z,24.50
2023-07-21T09:06:01.311Z,24.50
2023-07-21T09:08:31.260Z,24.30
2023-07-21T09:11:02.863Z,23.80
2023-07-21T09:13:31.278Z,23.60
2023-07-21T09:16:05.763Z,24.20
2023-07-21T09:18:44.075Z,23.90
2023-07-21T09:21:27.774Z,24.30
2023-07-21T09:24:06.181Z,24.80
2023-07-21T09:26:33.522Z,24.50
2023-07-21T09:29:01.122Z,25.10
2023-07-21T09:31:40.155Z,24.00
2023-07-21T09:34:15.992Z,24.50
2023-07-21T09:36:52.729Z,24.20
2023-07-21T09:39:19.685Z,24.30
2023-07-21T09:41:48.192Z,25.40
2023-07-21T09:44:16.602Z,24.70
2023-07-21T09:46:43.890Z,25.00
2023-07-21T09:49:10.968Z,25.00
2023-07-21T09:51:40.511Z,25.60
2023-07-21T09:54:10.985Z,25.70
2023-07-21T09:56:42.666Z,26.20
2023-07-21T09:59:13.268Z,25.80
2023-07-21T10:01:41.595Z,25.00
2023-07-21T10:04:10.513Z,25.40
2023-07-21T10:06:38.147Z,25.40
2023-07-21T10:09:10.677Z,24.50
2023-07-21T10:11:38.013Z,24.30
2023-07-21T10:14:05.056Z,25.00
2023-07-21T10:16:32.293Z,25.20
2023-07-21T10:19:15.541Z,24.70
2023-07-21T10:21:54.476Z,24.30
2023-07-21T10:24:29.886Z,24.10
2023-07-21T10:27:01.378Z,24.40
2023-07-21T10:29:31.548Z,24.80
2023-07-21T10:32:00.156Z,24.90
2023-07-21T10:34:38.257Z,25.90
2023-07-21T10:37:07.634Z,26.10
2023-07-21T10:39:38.469Z,25.90
2023-07-21T10:42:11.227Z,25.60
2023-07-21T10:44:51.388Z,26.00
2023-07-21T10:47:30.976Z,25.30
2023-07-21T10:50:00.705Z,25.20
2023-07-21T10:52:27.869Z,25.70
2023-07-21T10:54:59.693Z,26.00
2023-07-21T10:57:38.223Z,25.90
2023-07-21T11:00:07.504Z,25.60
2023-07-21T11:02:40.470Z,25.20
2023-07-21T11:05:08.112Z,24.50
2023-07-21T11:07:35.135Z,23.90
2023-07-21T11:10:05.224Z,24.00
2023-07-21T11:12:32.510Z,23.90
2023-07-21T11:15:04.716Z,24.80
2023-07-21T11:17:35.101Z,25.00
2023-07-21T11:20:07.362Z,24.80
2023-07-21T11:22:35.204Z,25.30
2023-07-21T11:25:11.485Z,24.50
2023-07-21T11:27:46.438Z,25.50
2023-07-21T11:30:20.224Z,25.30
2023-07-21T11:33:09.597Z,25.00
2023-07-21T11:35:48.085Z,25.60
2023-07-21T11:38:15.711Z,25.70
2023-07-21T11:40:42.843Z,25.20
2023-07-21T11:43:12.566Z,25.20
2023-07-21T11:45:41.147Z,25.40
2023-07-21T11:48:16.703Z,25.50
2023-07-21T11:50:51.410Z,25.30
2023-07-21T11:53:23.201Z,25.20
2023-07-21T11:55:50.912Z,25.00
2023-07-21T11:58:19.611Z,25.00
2023-07-21T12:00:49.391Z,24.80
2023-07-21T12:03:16.508Z,25.60
2023-07-21T12:05:47.245Z,25.20
2023-07-21T12:08:14.512Z,25.60
2023-07-21T12:10:44.755Z,25.90
2023-07-21T12:13:11.868Z,26.30
2023-07-21T12:15:39.183Z,26.80
2023-07-21T12:18:16.725Z,26.20
2023-07-21T12:20:43.907Z,26.50
2023-07-21T12:23:11.401Z,26.40
2023-07-21T12:25:41.986Z,25.80
2023-07-21T12:28:12.383Z,25.30
2023-07-21T12:30:42.536Z,25.30
2023-07-21T12:33:10.386Z,25.70
2023-07-21T12:35:38.578Z,26.00
2023-07-21T12:38:06.790Z,26.20
2023-07-21T12:40:34.086Z,25.60
2023-07-21T12:43:01.432Z,25.30
2023-07-21T12:45:30.785Z,24.60
2023-07-21T12:48:01.452Z,24.70
2023-07-21T12:50:29.113Z,24.00
2023-07-21T12:52:58.715Z,23.40
2023-07-21T12:55:25.860Z,23.90
2023-07-21T12:57:59.363Z,23.70
2023-07-21T13:00:26.438Z,24.30
2023-07-21T13:02:53.831Z,24.70
2023-07-21T13:05:21.611Z,23.70
2023-07-21T13:07:52.326Z,24.50
2023-07-21T13:10:19.445Z,24.90
2023-07-21T13:12:47.496Z,25.00
2023-07-21T13:15:14.624Z,25.10
2023-07-21T13:17:41.846Z,24.50
2023-07-21T13:20:11.101Z,23.90
2023-07-21T13:22:38.151Z,23.00
2023-07-21T13:25:08.571Z,23.30
2023-07-21T13:27:36.119Z,22.90
2023-07-21T13:30:04.898Z,22.80
2023-07-21T13:32:33.386Z,22.90
2023-07-21T13:35:00.793Z,23.00
2023-07-21T13:37:28.498Z,23.00
2023-07-21T13:39:55.787Z,23.50
2023-07-21T13:42:27.064Z,23.40
2023-07-21T13:45:00.182Z,24.20
2023-07-21T13:47:27.603Z,24.80
2023-07-21T13:49:58.102Z,25.30
2023-07-21T13:52:31.664Z,25.70
2023-07-21T13:54:58.647Z,25.20
2023-07-21T13:57:29.019Z,25.60
2023-07-21T13:59:56.238Z,25.60
2023-07-21T14:02:25.544Z,26.20
2023-07-21T14:04:53.008Z,25.10
2023-07-21T14:07:26.422Z,24.70
2023-07-21T14:09:53.721Z,24.00
2023-07-21T14:12:21.762Z,23.60
2023-07-21T14:14:48.977Z,22.40
2023-07-21T14:17:16.359Z,21.90
2023-07-21T14:19:43.600Z,22.10
2023-07-21T14:22:11.806Z,21.80
2023-07-21T14:24:38.909Z,21.70
2023-07-21T14:27:06.521Z,21.80
2023-07-21T14:29:35.346Z,21.60
2023-07-21T14:32:02.519Z,21.20
2023-07-21T14:34:29.624Z,20.90
2023-07-21T14:36:56.942Z,20.60
2023-07-21T14:39:23.943Z,20.10
2023-07-21T14:41:54.054Z,19.90
2023-07-21T14:44:24.168Z,20.00
2023-07-21T14:46:54.294Z,19.90
2023-07-21T14:49:22.509Z,19.00
2023-07-21T14:51:49.858Z,18.80
2023-07-21T14:54:18.877Z,18.30
2023-07-21T14:56:47.550Z,17.80
2023-07-21T14:59:14.624Z,18.10
2023-07-21T15:01:44.691Z,18.10
2023-07-21T15:04:15.097Z,18.10
2023-07-21T15:06:42.191Z,18.10
2023-07-21T15:09:10.372Z,18.00
2023-07-21T15:11:39.807Z,18.10
2023-07-21T15:14:10.495Z,18.30
2023-07-21T15:16:38.040Z,18.30
2023-07-21T15:19:06.678Z,18.30
2023-07-21T15:21:33.904Z,18.10
2023-07-21T15:24:00.948Z,17.90
2023-07-21T15:26:28.171Z,17.70
2023-07-21T15:28:56.044Z,17.50
2023-07-21T15:31:23.284Z,17.20
2023-07-21T15:33:50.957Z,17.10
2023-07-21T15:36:18.398Z,16.90
2023-07-21T15:38:48.550Z,17.20
2023-07-21T15:41:15.905Z,16.90
2023-07-21T15:43:43.052Z,16.90
2023-07-21T15:46:12.995Z,16.90
2023-07-21T15:48:44.074Z,17.20
2023-07-21T15:51:11.329Z,17.30
2023-07-21T15:53:38.406Z,17.90
2023-07-21T15:56:06.025Z,17.60
2023-07-21T15:58:36.070Z,17.80
2023-07-21T16:01:05.817Z,18.50
2023-07-21T16:03:33.147Z,18.60
2023-07-21T16:06:04.791Z,19.20
2023-07-21T16:08:32.667Z,19.50
2023-07-21T16:11:06.491Z,19.70
2023-07-21T16:13:36.663Z,19.60
2023-07-21T16:16:07.603Z,19.60
2023-07-21T16:18:34.724Z,19.50
2023-07-21T16:21:01.984Z,19.80
2023-07-21T16:23:34.601Z,19.50
2023-07-21T16:26:15.328Z,19.40
2023-07-21T16:28:46.215Z,19.60
2023-07-21T16:31:13.312Z,19.50
2023-07-21T16:33:40.757Z,19.20
2023-07-21T16:36:17.215Z,19.20
2023-07-21T16:38:44.227Z,19.00
2023-07-21T16:41:11.315Z,19.30
2023-07-21T16:43:41.544Z,19.40
2023-07-21T16:46:10.096Z,19.30
2023-07-21T16:48:43.222Z,19.30
2023-07-21T16:51:10.288Z,19.70
2023-07-21T16:53:37.566Z,19.70
2023-07-21T16:56:11.135Z,19.40
2023-07-21T16:58:40.561Z,19.20
2023-07-21T17:01:12.863Z,19.60
2023-07-21T17:03:40.398Z,19.60
2023-07-21T17:06:08.377Z,19.50
2023-07-21T17:08:35.509Z,19.50
2023-07-21T17:11:05.604Z,19.30
2023-07-21T17:13:36.279Z,19.40
2023-07-21T17:16:05.145Z,19.40
2023-07-21T17:18:32.264Z,19.30
2023-07-21T17:21:02.409Z,19.30
2023-07-21T17:23:32.633Z,19.30
2023-07-21T17:26:05.429Z,19.20
2023-07-21T17:28:36.574Z,19.20
2023-07-21T17:31:07.668Z,19.10
2023-07-21T17:33:35.064Z,19.20
2023-07-21T17:36:05.234Z,19.20
2023-07-21T17:38:32.928Z,19.10
2023-07-21T17:41:01.252Z,19.00
2023-07-21T17:43:32.464Z,19.20
2023-07-21T17:46:02.706Z,19.10
2023-07-21T17:48:30.498Z,19.00
2023-07-21T17:50:57.932Z,19.00
2023-07-21T17:53:25.553Z,19.00
2023-07-21T17:55:52.740Z,19.00
2023-07-21T17:58:24.376Z,18.90
2023-07-21T18:00:54.397Z,18.90
2023-07-21T18:03:21.728Z,18.90
2023-07-21T18:05:49.248Z,18.90
2023-07-21T18:08:17.573Z,18.90
2023-07-21T18:10:47.399Z,18.90
2023-07-21T18:13:28.883Z,18.80
2023-07-21T18:15:56.936Z,18.90
2023-07-21T18:18:25.127Z,18.80
2023-07-21T18:21:07.766Z,18.90
2023-07-21T18:23:36.010Z,18.80
2023-07-21T18:26:05.865Z,18.80
2023-07-21T18:28:36.573Z,18.80
2023-07-21T18:31:09.954Z,18.80
2023-07-21T18:33:38.358Z,18.70
2023-07-21T18:36:15.681Z,18.70
2023-07-21T18:38:47.065Z,18.60
2023-07-21T18:41:15.847Z,18.60
2023-07-21T18:43:46.484Z,18.40
2023-07-21T18:46:15.266Z,18.40
2023-07-21T18:48:42.338Z,18.40
2023-07-21T18:51:11.053Z,18.50
2023-07-21T18:53:43.458Z,18.40
2023-07-21T18:56:11.151Z,18.30
2023-07-21T18:58:43.967Z,18.20
2023-07-21T19:01:11.447Z,18.20
2023-07-21T19:03:38.661Z,18.10
2023-07-21T19:06:08.981Z,18.10
2023-07-21T19:08:36.140Z,18.00
2023-07-21T19:11:03.466Z,17.90
2023-07-21T19:13:32.403Z,18.00
2023-07-21T19:16:01.074Z,18.10
2023-07-21T19:18:31.455Z,18.10
2023-07-21T19:21:05.340Z,18.10
2023-07-21T19:23:38.183Z,18.10
2023-07-21T19:26:14.949Z,18.10
2023-07-21T19:28:42.182Z,18.10
2023-07-21T19:31:09.208Z,18.00
2023-07-21T19:33:36.461Z,18.00
2023-07-21T19:36:03.689Z,18.00
2023-07-21T19:38:33.409Z,17.90
2023-07-21T19:41:06.448Z,17.80
2023-07-21T19:43:33.855Z,17.90
2023-07-21T19:46:02.160Z,17.80
2023-07-21T19:48:29.448Z,17.80
2023-07-21T19:50:56.670Z,17.70
2023-07-21T19:53:23.717Z,17.60
2023-07-21T19:55:52.875Z,17.60
2023-07-21T19:58:22.373Z,17.50
2023-07-21T20:00:49.416Z,17.50
2023-07-21T20:03:16.677Z,17.50
2023-07-21T20:05:43.889Z,17.40
2023-07-21T20:08:11.158Z,17.40
2023-07-21T20:10:38.641Z,17.40
2023-07-21T20:13:05.863Z,17.30
2023-07-21T20:15:35.855Z,17.30
2023-07-21T20:18:03.578Z,17.30
2023-07-21T20:20:30.756Z,17.20
2023-07-21T20:22:57.754Z,17.20
2023-07-21T20:25:25.014Z,17.10
2023-07-21T20:27:52.034Z,17.00
2023-07-21T20:30:19.203Z,16.80
2023-07-21T20:32:46.463Z,16.70
2023-07-21T20:35:13.747Z,16.70
2023-07-21T20:40:21.862Z,16.50
2023-07-21T20:42:48.972Z,16.60
2023-07-21T20:45:16.025Z,16.60
2023-07-21T20:47:43.300Z,16.40
2023-07-21T20:50:10.788Z,16.40
2023-07-21T20:52:38.562Z,16.30
2023-07-21T20:55:08.148Z,16.40
2023-07-21T20:57:35.249Z,16.40
2023-07-21T21:00:02.300Z,16.30
2023-07-21T21:02:29.522Z,16.20
2023-07-21T21:04:56.591Z,16.30
2023-07-21T21:07:23.619Z,16.40
2023-07-21T21:09:50.757Z,16.50
2023-07-21T21:12:18.308Z,16.50
2023-07-21T21:14:45.371Z,16.40
2023-07-21T21:17:13.290Z,18.00
2023-07-21T21:19:40.532Z,16.50
2023-07-21T21:22:07.673Z,16.40
2023-07-21T21:24:34.715Z,16.40
2023-07-21T21:27:01.682Z,16.40
2023-07-21T21:29:28.808Z,16.30
2023-07-21T21:31:55.920Z,16.30
2023-07-21T21:34:22.994Z,16.30
2023-07-21T21:36:50.040Z,16.30
2023-07-21T21:39:17.037Z,16.20
2023-07-21T21:41:44.136Z,16.20
2023-07-21T21:44:11.128Z,16.20
2023-07-21T21:46:38.224Z,16.30
2023-07-21T21:49:05.557Z,16.20
2023-07-21T21:51:32.617Z,16.20
2023-07-21T21:53:59.623Z,16.10
2023-07-21T21:56:27.562Z,16.10
2023-07-21T21:58:55.741Z,16.00
2023-07-21T22:01:23.426Z,16.00
2023-07-21T22:03:50.562Z,16.00
2023-07-21T22:06:17.862Z,16.00
2023-07-21T22:08:45.129Z,16.00
2023-07-21T22:11:14.196Z,15.90
2023-07-21T22:13:41.207Z,15.90
2023-07-21T22:16:08.424Z,15.80
2023-07-21T22:18:35.503Z,15.80
2023-07-21T22:21:04.641Z,15.80
2023-07-21T22:23:31.880Z,15.80
2023-07-21T22:26:05.765Z,15.80
2023-07-21T22:28:33.717Z,15.90
2023-07-21T22:31:00.855Z,15.70
2023-07-21T22:33:27.830Z,15.80
2023-07-21T22:35:56.079Z,15.80
2023-07-21T22:38:23.197Z,15.70
2023-07-21T22:40:50.529Z,15.70
2023-07-21T22:43:17.753Z,15.60
2023-07-21T22:45:44.847Z,15.50
2023-07-21T22:48:12.041Z,15.60
2023-07-21T22:50:42.378Z,15.60
2023-07-21T22:53:09.394Z,15.50
2023-07-21T22:55:36.411Z,15.40
2023-07-21T22:58:04.148Z,15.40
2023-07-21T23:00:31.430Z,15.40
2023-07-21T23:02:58.569Z,15.40
2023-07-21T23:05:25.814Z,15.30
2023-07-21T23:07:52.932Z,15.20
2023-07-21T23:10:20.132Z,15.20
2023-07-21T23:12:47.644Z,15.20
2023-07-21T23:15:14.769Z,15.20
2023-07-21T23:17:41.741Z,15.10
2023-07-21T23:20:09.318Z,15.20
2023-07-21T23:22:36.458Z,15.10
2023-07-21T23:25:03.556Z,15.10
2023-07-21T23:27:30.696Z,15.10
2023-07-21T23:29:59.278Z,15.10
2023-07-21T23:32:26.323Z,15.10
2023-07-21T23:34:53.500Z,15.00
2023-07-21T23:37:20.884Z,15.00
2023-07-21T23:39:48.153Z,15.00
2023-07-21T23:42:15.514Z,15.00
2023-07-21T23:44:42.565Z,15.00
2023-07-21T23:47:09.580Z,14.90
2023-07-21T23:49:37.227Z,14.90
2023-07-21T23:52:04.629Z,15.00
2023-07-21T23:54:31.714Z,14.90
2023-07-21T23:56:58.847Z,14.30
2023-07-21T23:59:26.014Z,14.90
